Aviation Digital Data Service (ADDS)

Output produced by METARs form (1811 UTC 14 August 2018)
found at http://www.aviationweather.gov/adds/metars/
 
TAF WPDL 141642Z 1418/1506 15005KT CAVOK 
     FM150000 31008KT CAVOK